createdAt,value
2023-01-20T00:00:04.840Z,10.6
2023-01-20T00:01:07.096Z,10.6
2023-01-20T00:02:08.573Z,10.6
2023-01-20T00:03:10.456Z,10.6
2023-01-20T00:04:12.313Z,10.6
2023-01-20T00:05:14.856Z,10.6
2023-01-20T00:06:26.386Z,10.6
2023-01-20T00:07:28.246Z,10.6
2023-01-20T00:08:30.194Z,10.6
2023-01-20T00:09:32.556Z,10.6
2023-01-20T00:10:33.985Z,10.6
2023-01-20T00:11:35.796Z,10.6
2023-01-20T00:12:37.666Z,10.6
2023-01-20T00:13:39.754Z,10.6
2023-01-20T00:14:41.509Z,10.6
2023-01-20T00:15:43.512Z,10.6
2023-01-20T00:16:45.222Z,10.6
2023-01-20T00:17:47.164Z,10.6
2023-01-20T00:18:49.126Z,10.6
2023-01-20T00:19:50.920Z,10.6
2023-01-20T00:20:52.874Z,10.6
2023-01-20T00:21:54.751Z,10.6
2023-01-20T00:22:56.571Z,10.6
2023-01-20T00:23:58.476Z,10.5
2023-01-20T00:25:00.475Z,10.5
2023-01-20T00:26:02.358Z,10.5
2023-01-20T00:27:04.188Z,10.5
2023-01-20T00:28:06.138Z,10.5
2023-01-20T00:29:08.026Z,10.5
2023-01-20T00:30:09.871Z,10.5
2023-01-20T00:31:11.866Z,10.5
2023-01-20T00:32:13.644Z,10.5
2023-01-20T00:33:15.538Z,10.5
2023-01-20T00:34:17.439Z,10.5
2023-01-20T00:35:19.399Z,10.5
2023-01-20T00:36:21.309Z,10.5
2023-01-20T00:37:23.108Z,10.5
2023-01-20T00:38:25.074Z,10.5
2023-01-20T00:39:26.955Z,10.5
2023-01-20T00:40:28.817Z,10.5
2023-01-20T00:41:30.802Z,10.5
2023-01-20T00:42:32.561Z,10.5
2023-01-20T00:43:34.470Z,10.5
2023-01-20T00:44:36.381Z,10.5
2023-01-20T00:45:38.258Z,10.5
2023-01-20T00:46:40.250Z,10.5
2023-01-20T00:47:42.552Z,10.5
2023-01-20T00:48:44.008Z,10.5
2023-01-20T00:49:45.888Z,10.5
2023-01-20T00:50:47.755Z,10.5
2023-01-20T00:51:50.113Z,10.5
2023-01-20T00:52:51.422Z,10.5
2023-01-20T00:53:53.299Z,10.4
2023-01-20T00:54:55.198Z,10.4
2023-01-20T00:55:57.223Z,10.4
2023-01-20T00:56:59.036Z,10.4
2023-01-20T00:58:00.938Z,10.4
2023-01-20T00:59:02.739Z,10.4
2023-01-20T01:00:04.631Z,10.4
2023-01-20T01:01:06.782Z,10.4
2023-01-20T01:02:08.531Z,10.4
2023-01-20T01:03:10.325Z,10.4
2023-01-20T01:04:12.118Z,10.4
2023-01-20T01:05:14.324Z,10.4
2023-01-20T01:06:26.226Z,10.4
2023-01-20T01:07:28.240Z,10.4
2023-01-20T01:08:29.951Z,10.4
2023-01-20T01:09:31.832Z,10.4
2023-01-20T01:10:33.797Z,10.4
2023-01-20T01:11:35.589Z,10.4
2023-01-20T01:12:37.510Z,10.4
2023-01-20T01:13:39.368Z,10.4
2023-01-20T01:14:41.228Z,10.4
2023-01-20T01:15:43.118Z,10.4
2023-01-20T01:16:45.056Z,10.4
2023-01-20T01:17:46.911Z,10.4
2023-01-20T01:18:48.743Z,10.4
2023-01-20T01:19:50.701Z,10.4
2023-01-20T01:20:52.522Z,10.4
2023-01-20T01:21:54.401Z,10.4
2023-01-20T01:22:56.333Z,10.4
2023-01-20T01:23:58.196Z,10.4
2023-01-20T01:25:00.045Z,10.4
2023-01-20T01:26:01.926Z,10.4
2023-01-20T01:27:03.802Z,10.4
2023-01-20T01:28:06.039Z,10.4
2023-01-20T01:29:07.562Z,10.4
2023-01-20T01:30:09.542Z,10.4
2023-01-20T01:31:11.382Z,10.4
2023-01-20T01:32:13.257Z,10.4
2023-01-20T01:33:15.190Z,10.3
2023-01-20T01:34:16.981Z,10.3
2023-01-20T01:35:18.864Z,10.3
2023-01-20T01:36:20.763Z,10.3
2023-01-20T01:37:22.620Z,10.3
2023-01-20T01:38:24.530Z,10.3
2023-01-20T01:39:26.488Z,10.3
2023-01-20T01:40:28.250Z,10.3
2023-01-20T01:41:30.167Z,10.3
2023-01-20T01:42:32.650Z,10.3
2023-01-20T01:43:34.008Z,10.3
2023-01-20T01:44:35.829Z,10.3
2023-01-20T01:45:37.778Z,10.3
2023-01-20T01:46:40.169Z,10.3
2023-01-20T01:47:41.495Z,10.3
2023-01-20T01:48:43.461Z,10.3
2023-01-20T01:49:45.378Z,10.3
2023-01-20T01:50:47.326Z,10.3
2023-01-20T01:51:49.027Z,10.3
2023-01-20T01:52:50.854Z,10.3
2023-01-20T01:53:46.702Z,10.2
2023-01-20T01:54:48.521Z,10.3
2023-01-20T01:55:50.409Z,10.3
2023-01-20T01:56:52.808Z,10.3
2023-01-20T01:57:54.151Z,10.3
2023-01-20T01:58:56.092Z,10.3
2023-01-20T01:59:58.025Z,10.3
2023-01-20T02:01:00.388Z,10.3
2023-01-20T02:02:12.057Z,10.3
2023-01-20T02:03:34.539Z,10.3
2023-01-20T02:04:46.725Z,10.3
2023-01-20T02:05:48.563Z,10.3
2023-01-20T02:06:50.454Z,10.3
2023-01-20T02:07:52.317Z,10.3
2023-01-20T02:08:54.218Z,10.3
2023-01-20T02:09:56.172Z,10.3
2023-01-20T02:10:58.017Z,10.3
2023-01-20T02:11:59.980Z,10.3
2023-01-20T02:13:01.761Z,10.3
2023-01-20T02:14:03.664Z,10.3
2023-01-20T02:15:05.661Z,10.3
2023-01-20T02:16:07.446Z,10.3
2023-01-20T02:17:09.292Z,10.3
2023-01-20T02:18:11.200Z,10.3
2023-01-20T02:19:13.119Z,10.3
2023-01-20T02:20:15.040Z,10.2
2023-01-20T02:21:16.881Z,10.2
2023-01-20T02:22:18.793Z,10.2
2023-01-20T02:23:20.679Z,10.2
2023-01-20T02:24:22.566Z,10.2
2023-01-20T02:25:24.491Z,10.2
2023-01-20T02:26:26.325Z,10.2
2023-01-20T02:27:28.171Z,10.2
2023-01-20T02:28:30.138Z,10.2
2023-01-20T02:29:31.941Z,10.2
2023-01-20T02:30:34.390Z,10.2
2023-01-20T02:31:35.730Z,10.2
2023-01-20T02:32:37.581Z,10.2
2023-01-20T02:33:39.484Z,10.2
2023-01-20T02:34:41.883Z,10.2
2023-01-20T02:35:43.280Z,10.2
2023-01-20T02:36:45.119Z,10.2
2023-01-20T02:37:47.035Z,10.2
2023-01-20T02:38:49.208Z,10.2
2023-01-20T02:39:50.800Z,10.2
2023-01-20T02:40:52.842Z,10.2
2023-01-20T02:41:54.559Z,10.2
2023-01-20T02:42:56.463Z,10.2
2023-01-20T02:43:58.355Z,10.2
2023-01-20T02:45:00.235Z,10.2
2023-01-20T02:46:02.173Z,10.2
2023-01-20T02:47:04.056Z,10.2
2023-01-20T02:48:05.874Z,10.2
2023-01-20T02:49:07.784Z,10.2
2023-01-20T02:50:09.761Z,10.2
2023-01-20T02:51:11.593Z,10.1
2023-01-20T02:52:13.433Z,10.1
2023-01-20T02:53:15.307Z,10.1
2023-01-20T02:54:17.198Z,10.1
2023-01-20T02:55:19.099Z,10.1
2023-01-20T02:56:21.040Z,10.1
2023-01-20T02:57:22.869Z,10.1
2023-01-20T02:58:24.719Z,10.1
2023-01-20T02:59:26.627Z,10.1
2023-01-20T03:00:28.603Z,10.1
2023-01-20T03:01:30.531Z,10.1
2023-01-20T03:02:32.244Z,10.1
2023-01-20T03:03:34.178Z,10.1
2023-01-20T03:04:36.038Z,10.1
2023-01-20T03:05:37.980Z,10.1
2023-01-20T03:06:39.896Z,10.1
2023-01-20T03:07:41.643Z,10.1
2023-01-20T03:08:43.565Z,10.1
2023-01-20T03:09:45.433Z,10.1
2023-01-20T03:10:47.342Z,10.1
2023-01-20T03:11:49.275Z,10.1
2023-01-20T03:12:51.842Z,10.1
2023-01-20T03:13:53.210Z,10.1
2023-01-20T03:14:55.101Z,10.1
2023-01-20T03:15:56.985Z,10.1
2023-01-20T03:16:59.106Z,10.1
2023-01-20T03:18:00.757Z,10.1
2023-01-20T03:19:02.668Z,10.1
2023-01-20T03:20:04.560Z,10.1
2023-01-20T03:21:06.527Z,10.1
2023-01-20T03:22:08.486Z,10.1
2023-01-20T03:23:10.201Z,10
2023-01-20T03:24:12.086Z,10
2023-01-20T03:25:14.210Z,10
2023-01-20T03:26:26.184Z,10
2023-01-20T03:27:28.114Z,10
2023-01-20T03:28:29.962Z,10
2023-01-20T03:29:31.831Z,10
2023-01-20T03:30:33.798Z,10
2023-01-20T03:31:35.770Z,10
2023-01-20T03:32:37.534Z,10
2023-01-20T03:33:39.366Z,10
2023-01-20T03:34:41.284Z,10
2023-01-20T03:35:43.174Z,10
2023-01-20T03:36:45.080Z,10
2023-01-20T03:37:46.965Z,10
2023-01-20T03:38:48.793Z,10
2023-01-20T03:39:50.703Z,10
2023-01-20T03:40:52.647Z,10
2023-01-20T03:41:54.506Z,10
2023-01-20T03:42:56.415Z,10
2023-01-20T03:43:58.235Z,10
2023-01-20T03:45:00.199Z,10
2023-01-20T03:46:02.021Z,10
2023-01-20T03:47:03.895Z,10
2023-01-20T03:48:05.896Z,10
2023-01-20T03:49:07.664Z,10
2023-01-20T03:50:09.542Z,10
2023-01-20T03:51:11.500Z,10
2023-01-20T03:52:13.497Z,10
2023-01-20T03:53:15.240Z,10
2023-01-20T03:54:17.174Z,10
2023-01-20T03:55:18.990Z,10
2023-01-20T03:56:20.874Z,10
2023-01-20T03:57:22.846Z,10
2023-01-20T03:58:24.748Z,10
2023-01-20T03:59:26.549Z,10
2023-01-20T04:00:29.559Z,10
2023-01-20T04:01:40.704Z,10
2023-01-20T04:02:42.556Z,10
2023-01-20T04:03:44.495Z,10
2023-01-20T04:04:46.352Z,10
2023-01-20T04:05:48.181Z,10
2023-01-20T04:06:50.037Z,10
2023-01-20T04:07:52.015Z,10
2023-01-20T04:08:56.431Z,10
2023-01-20T04:10:06.004Z,10
2023-01-20T04:11:07.872Z,10
2023-01-20T04:12:09.751Z,10
2023-01-20T04:13:11.599Z,10
2023-01-20T04:14:13.566Z,9.9
2023-01-20T04:15:15.571Z,9.9
2023-01-20T04:16:27.545Z,9.9
2023-01-20T04:17:29.435Z,9.9
2023-01-20T04:18:31.315Z,9.9
2023-01-20T04:19:33.244Z,9.9
2023-01-20T04:20:35.103Z,9.9
2023-01-20T04:21:37.069Z,9.9
2023-01-20T04:22:38.821Z,9.9
2023-01-20T04:23:40.759Z,9.9
2023-01-20T04:24:43.160Z,9.9
2023-01-20T04:25:44.470Z,9.9
2023-01-20T04:26:46.340Z,9.9
2023-01-20T04:27:48.290Z,9.9
2023-01-20T04:28:50.699Z,9.9
2023-01-20T04:29:52.000Z,9.9
2023-01-20T04:30:54.049Z,9.9
2023-01-20T04:31:55.826Z,9.9
2023-01-20T04:32:57.875Z,9.9
2023-01-20T04:33:59.600Z,9.9
2023-01-20T04:35:01.497Z,9.9
2023-01-20T04:36:03.313Z,9.9
2023-01-20T04:37:05.298Z,9.9
2023-01-20T04:38:07.144Z,9.9
2023-01-20T04:39:09.069Z,9.9
2023-01-20T04:40:11.000Z,9.9
2023-01-20T04:41:12.800Z,9.9
2023-01-20T04:42:14.676Z,9.9
2023-01-20T04:43:16.583Z,9.9
2023-01-20T04:44:18.449Z,9.9
2023-01-20T04:45:20.379Z,9.9
2023-01-20T04:46:22.277Z,9.9
2023-01-20T04:47:24.087Z,9.9
2023-01-20T04:48:26.053Z,9.9
2023-01-20T04:49:27.985Z,9.9
2023-01-20T04:50:29.787Z,9.9
2023-01-20T04:51:31.603Z,9.9
2023-01-20T04:52:33.505Z,9.9
2023-01-20T04:53:35.406Z,9.9
2023-01-20T04:54:37.309Z,9.9
2023-01-20T04:55:39.461Z,9.9
2023-01-20T04:56:41.219Z,9.9
2023-01-20T04:57:43.153Z,9.9
2023-01-20T04:58:44.950Z,9.9
2023-01-20T04:59:46.735Z,9.9
2023-01-20T05:00:48.672Z,9.9
2023-01-20T05:01:50.740Z,9.9
2023-01-20T05:02:52.449Z,9.9
2023-01-20T05:03:54.303Z,9.9
2023-01-20T05:04:56.196Z,9.9
2023-01-20T05:05:58.084Z,9.9
2023-01-20T05:06:59.910Z,9.9
2023-01-20T05:08:01.868Z,9.9
2023-01-20T05:09:03.691Z,9.9
2023-01-20T05:10:05.643Z,9.9
2023-01-20T05:11:08.037Z,9.9
2023-01-20T05:12:09.361Z,9.9
2023-01-20T05:13:11.255Z,9.9
2023-01-20T05:14:13.248Z,9.9
2023-01-20T05:15:15.696Z,9.9
2023-01-20T05:16:27.234Z,9.9
2023-01-20T05:17:29.060Z,9.9
2023-01-20T05:18:30.959Z,9.9
2023-01-20T05:19:33.267Z,9.9
2023-01-20T05:20:34.722Z,9.9
2023-01-20T05:21:36.740Z,9.9
2023-01-20T05:22:38.484Z,9.9
2023-01-20T05:23:40.705Z,9.9
2023-01-20T05:24:42.333Z,9.9
2023-01-20T05:25:44.186Z,9.9
2023-01-20T05:26:46.176Z,9.9
2023-01-20T05:27:48.034Z,9.9
2023-01-20T05:28:49.843Z,9.9
2023-01-20T05:29:51.730Z,9.9
2023-01-20T05:30:53.670Z,9.9
2023-01-20T05:31:55.530Z,9.9
2023-01-20T05:32:57.498Z,9.9
2023-01-20T05:33:59.265Z,9.9
2023-01-20T05:35:01.148Z,9.9
2023-01-20T05:36:03.115Z,9.9
2023-01-20T05:37:04.973Z,9.9
2023-01-20T05:38:07.030Z,9.9
2023-01-20T05:39:08.786Z,9.9
2023-01-20T05:40:10.593Z,9.9
2023-01-20T05:41:12.501Z,9.9
2023-01-20T05:42:14.381Z,9.9
2023-01-20T05:43:16.241Z,9.9
2023-01-20T05:44:18.119Z,9.9
2023-01-20T05:45:20.045Z,9.9
2023-01-20T05:46:21.928Z,9.9
2023-01-20T05:47:23.872Z,9.9
2023-01-20T05:48:25.754Z,9.9
2023-01-20T05:49:27.612Z,9.9
2023-01-20T05:50:29.464Z,9.9
2023-01-20T05:51:31.699Z,9.9
2023-01-20T05:52:33.322Z,9.9
2023-01-20T05:53:35.148Z,9.9
2023-01-20T05:54:37.040Z,9.9
2023-01-20T05:55:38.918Z,9.9
2023-01-20T05:56:40.825Z,9.9
2023-01-20T05:57:42.743Z,9.9
2023-01-20T05:58:44.648Z,9.9
2023-01-20T05:59:46.438Z,9.9
2023-01-20T06:00:48.355Z,9.9
2023-01-20T06:01:50.800Z,9.9
2023-01-20T06:03:02.577Z,9.9
2023-01-20T06:04:04.312Z,9.9
2023-01-20T06:05:06.173Z,9.9
2023-01-20T06:06:08.059Z,9.9
2023-01-20T06:07:09.927Z,9.9
2023-01-20T06:08:11.915Z,9.9
2023-01-20T06:09:13.711Z,9.9
2023-01-20T06:10:16.186Z,9.9
2023-01-20T06:11:17.483Z,9.9
2023-01-20T06:12:19.505Z,9.9
2023-01-20T06:13:21.249Z,9.9
2023-01-20T06:14:23.518Z,9.9
2023-01-20T06:15:24.967Z,9.9
2023-01-20T06:16:26.918Z,9.9
2023-01-20T06:17:28.737Z,9.9
2023-01-20T06:18:30.951Z,9.9
2023-01-20T06:19:32.528Z,9.9
2023-01-20T06:20:34.421Z,9.9
2023-01-20T06:21:36.417Z,9.9
2023-01-20T06:22:38.210Z,9.9
2023-01-20T06:23:40.157Z,9.9
2023-01-20T06:24:42.083Z,9.9
2023-01-20T06:25:43.876Z,9.9
2023-01-20T06:26:45.756Z,9.9
2023-01-20T06:27:47.676Z,9.9
2023-01-20T06:28:49.609Z,9.9
2023-01-20T06:29:51.401Z,9.9
2023-01-20T06:30:53.330Z,9.9
2023-01-20T06:31:55.235Z,9.9
2023-01-20T06:32:57.088Z,9.9
2023-01-20T06:33:59.049Z,9.9
2023-01-20T06:35:00.854Z,9.9
2023-01-20T06:36:02.726Z,9.9
2023-01-20T06:37:04.658Z,9.9
2023-01-20T06:38:06.621Z,9.8
2023-01-20T06:39:08.461Z,9.8
2023-01-20T06:40:10.297Z,9.8
2023-01-20T06:41:12.179Z,9.8
2023-01-20T06:42:14.087Z,9.8
2023-01-20T06:43:15.971Z,9.8
2023-01-20T06:44:17.906Z,9.8
2023-01-20T06:45:19.708Z,9.8
2023-01-20T06:46:21.638Z,9.8
2023-01-20T06:47:23.529Z,9.8
2023-01-20T06:48:25.363Z,9.8
2023-01-20T06:49:27.360Z,9.8
2023-01-20T06:50:29.245Z,9.8
2023-01-20T06:51:31.024Z,9.8
2023-01-20T06:52:32.883Z,9.8
2023-01-20T06:53:34.780Z,9.8
2023-01-20T06:54:36.695Z,9.8
2023-01-20T06:55:38.514Z,9.8
2023-01-20T06:56:40.886Z,9.8
2023-01-20T06:57:42.343Z,9.8
2023-01-20T06:58:44.266Z,9.8
2023-01-20T06:59:46.075Z,9.8
2023-01-20T07:00:48.335Z,9.8
2023-01-20T07:01:49.942Z,9.8
2023-01-20T07:03:01.957Z,9.8
2023-01-20T07:04:03.835Z,9.8
2023-01-20T07:05:06.479Z,9.8
2023-01-20T07:06:07.614Z,9.8
2023-01-20T07:07:09.472Z,9.8
2023-01-20T07:08:11.419Z,9.8
2023-01-20T07:09:13.812Z,9.8
2023-01-20T07:10:15.149Z,9.8
2023-01-20T07:11:16.999Z,9.8
2023-01-20T07:12:18.888Z,9.8
2023-01-20T07:13:20.908Z,9.8
2023-01-20T07:14:22.758Z,9.8
2023-01-20T07:15:24.634Z,9.8
2023-01-20T07:16:26.455Z,9.8
2023-01-20T07:17:28.356Z,9.8
2023-01-20T07:18:30.303Z,9.8
2023-01-20T07:19:32.121Z,9.8
2023-01-20T07:20:34.044Z,9.8
2023-01-20T07:21:35.852Z,9.8
2023-01-20T07:22:37.729Z,9.8
2023-01-20T07:23:39.602Z,9.8
2023-01-20T07:24:41.508Z,9.8
2023-01-20T07:25:43.443Z,9.8
2023-01-20T07:26:45.296Z,9.8
2023-01-20T07:27:47.251Z,9.8
2023-01-20T07:28:49.047Z,9.8
2023-01-20T07:29:50.976Z,9.8
2023-01-20T07:30:53.046Z,9.8
2023-01-20T07:31:54.705Z,9.8
2023-01-20T07:32:56.571Z,9.8
2023-01-20T07:33:58.499Z,9.8
2023-01-20T07:35:00.312Z,9.8
2023-01-20T07:36:02.252Z,9.8
2023-01-20T07:37:04.102Z,9.8
2023-01-20T07:38:05.994Z,9.8
2023-01-20T07:39:07.878Z,9.8
2023-01-20T07:40:09.797Z,9.8
2023-01-20T07:41:11.689Z,9.8
2023-01-20T07:42:13.530Z,9.8
2023-01-20T07:43:15.422Z,9.8
2023-01-20T07:44:17.318Z,9.8
2023-01-20T07:45:19.243Z,9.8
2023-01-20T07:46:21.101Z,9.8
2023-01-20T07:47:22.963Z,9.8
2023-01-20T07:48:24.835Z,9.8
2023-01-20T07:49:26.714Z,9.8
2023-01-20T07:50:28.604Z,9.8
2023-01-20T07:51:31.100Z,9.8
2023-01-20T07:52:32.367Z,9.8
2023-01-20T07:53:34.288Z,9.8
2023-01-20T07:54:36.134Z,9.8
2023-01-20T07:55:38.442Z,9.8
2023-01-20T07:56:40.401Z,9.8
2023-01-20T07:57:42.367Z,9.8
2023-01-20T07:58:44.141Z,9.8
2023-01-20T07:59:46.056Z,9.8
2023-01-20T08:00:48.250Z,9.8
2023-01-20T08:01:50.091Z,9.8
2023-01-20T08:02:51.817Z,9.8
2023-01-20T08:03:53.690Z,9.8
2023-01-20T08:04:55.599Z,9.8
2023-01-20T08:05:57.431Z,9.8
2023-01-20T08:06:59.359Z,9.8
2023-01-20T08:08:01.191Z,9.8
2023-01-20T08:09:03.060Z,9.8
2023-01-20T08:10:04.935Z,9.8
2023-01-20T08:11:06.776Z,9.8
2023-01-20T08:12:08.736Z,9.8
2023-01-20T08:13:10.569Z,9.8
2023-01-20T08:14:12.448Z,9.8
2023-01-20T08:15:14.570Z,9.7
2023-01-20T08:16:26.653Z,9.7
2023-01-20T08:17:28.513Z,9.7
2023-01-20T08:18:30.334Z,9.7
2023-01-20T08:19:32.233Z,9.7
2023-01-20T08:20:34.173Z,9.7
2023-01-20T08:21:36.228Z,9.7
2023-01-20T08:22:38.134Z,9.7
2023-01-20T08:23:39.947Z,9.7
2023-01-20T08:24:41.931Z,9.7
2023-01-20T08:25:43.687Z,9.7
2023-01-20T08:26:45.618Z,9.7
2023-01-20T08:27:47.631Z,9.7
2023-01-20T08:28:49.376Z,9.7
2023-01-20T08:29:51.219Z,9.7
2023-01-20T08:30:53.149Z,9.7
2023-01-20T08:31:55.247Z,9.7
2023-01-20T08:32:56.937Z,9.7
2023-01-20T08:33:59.290Z,9.7
2023-01-20T08:37:21.140Z,9.7
2023-01-20T08:38:24.246Z,9.7
2023-01-20T08:39:26.095Z,9.7
2023-01-20T08:40:28.034Z,9.7
2023-01-20T08:41:29.843Z,9.7
2023-01-20T08:42:31.716Z,9.7
2023-01-20T08:43:33.760Z,9.8
2023-01-20T08:44:35.532Z,9.8
2023-01-20T08:45:37.397Z,9.8
2023-01-20T08:46:41.610Z,9.8
2023-01-20T08:47:51.548Z,9.8
2023-01-20T08:48:53.440Z,9.8
2023-01-20T08:49:55.256Z,9.8
2023-01-20T08:50:57.255Z,9.8
2023-01-20T08:51:59.060Z,9.8
2023-01-20T08:53:00.942Z,9.8
2023-01-20T08:54:03.408Z,9.8
2023-01-20T08:55:04.696Z,9.8
2023-01-20T08:56:06.565Z,9.8
2023-01-20T08:57:08.461Z,9.8
2023-01-20T08:58:10.951Z,9.8
2023-01-20T08:59:12.438Z,9.8
2023-01-20T09:00:14.297Z,9.8
2023-01-20T09:01:16.171Z,9.8
2023-01-20T09:02:18.208Z,9.8
2023-01-20T09:03:19.952Z,9.8
2023-01-20T09:04:21.831Z,9.8
2023-01-20T09:05:23.692Z,9.8
2023-01-20T09:06:25.545Z,9.8
2023-01-20T09:07:27.513Z,9.8
2023-01-20T09:08:29.294Z,9.8
2023-01-20T09:09:31.211Z,9.8
2023-01-20T09:10:33.046Z,9.8
2023-01-20T09:11:34.989Z,9.8
2023-01-20T09:12:36.841Z,9.8
2023-01-20T09:13:38.723Z,9.7
2023-01-20T09:14:40.852Z,9.7
2023-01-20T09:15:42.495Z,9.7
2023-01-20T09:16:44.473Z,9.7
2023-01-20T09:17:46.233Z,9.7
2023-01-20T09:18:48.182Z,9.7
2023-01-20T09:19:50.124Z,9.7
2023-01-20T09:20:51.880Z,9.7
2023-01-20T09:21:53.762Z,9.7
2023-01-20T09:22:55.709Z,9.7
2023-01-20T09:23:57.542Z,9.7
2023-01-20T09:24:59.452Z,9.7
2023-01-20T09:26:01.322Z,9.7
2023-01-20T09:27:03.182Z,9.7
2023-01-20T09:28:06.656Z,9.7
2023-01-20T09:29:17.323Z,9.7
2023-01-20T09:30:19.320Z,9.7
2023-01-20T09:31:21.164Z,9.8
2023-01-20T09:32:23.000Z,9.8
2023-01-20T09:33:24.967Z,9.8
2023-01-20T09:34:26.807Z,9.8
2023-01-20T09:35:28.692Z,9.8
2023-01-20T09:36:30.551Z,9.8
2023-01-20T09:37:32.450Z,9.9
2023-01-20T09:38:34.851Z,9.9
2023-01-20T09:39:36.312Z,10
2023-01-20T09:40:38.150Z,10
2023-01-20T09:41:42.128Z,10
2023-01-20T09:42:52.171Z,10
2023-01-20T09:43:54.082Z,10.1
2023-01-20T09:44:55.954Z,10.1
2023-01-20T09:45:57.900Z,10.1
2023-01-20T09:46:59.711Z,10.1
2023-01-20T09:48:01.593Z,10.1
2023-01-20T09:49:03.489Z,10.1
2023-01-20T09:50:05.501Z,10.1
2023-01-20T09:51:07.300Z,10.1
2023-01-20T09:52:09.176Z,10.1
2023-01-20T09:53:11.082Z,10.1
2023-01-20T09:54:12.910Z,10.1
2023-01-20T09:55:14.790Z,10.1
2023-01-20T09:56:16.822Z,10.1
2023-01-20T09:57:19.161Z,10.1
2023-01-20T09:58:20.430Z,10.1
2023-01-20T09:59:22.357Z,10.1
2023-01-20T10:00:24.219Z,10.1
2023-01-20T10:01:26.506Z,10.1
2023-01-20T10:02:28.299Z,10.1
2023-01-20T10:03:30.290Z,10.1
2023-01-20T10:04:32.059Z,10.1
2023-01-20T10:05:34.029Z,10.1
2023-01-20T10:06:35.883Z,10.1
2023-01-20T10:07:37.740Z,10.1
2023-01-20T10:08:39.573Z,10.1
2023-01-20T10:09:41.460Z,10.1
2023-01-20T10:10:43.343Z,10.1
2023-01-20T10:11:45.270Z,10.1
2023-01-20T10:12:47.151Z,10.1
2023-01-20T10:13:49.000Z,10.1
2023-01-20T10:14:50.918Z,10.1
2023-01-20T10:16:03.182Z,10.1
2023-01-20T10:17:05.150Z,10.1
2023-01-20T10:18:06.877Z,10.1
2023-01-20T10:19:08.801Z,10.1
2023-01-20T10:20:10.696Z,10.1
2023-01-20T10:21:12.730Z,10.1
2023-01-20T10:22:14.521Z,10.1
2023-01-20T10:23:16.355Z,10.1
2023-01-20T10:24:18.252Z,10.1
2023-01-20T10:25:20.144Z,10.1
2023-01-20T10:26:22.111Z,10.1
2023-01-20T10:27:24.020Z,10.1
2023-01-20T10:28:25.791Z,10.1
2023-01-20T10:29:27.662Z,10.1
2023-01-20T10:30:29.575Z,10
2023-01-20T10:31:31.483Z,10
2023-01-20T10:32:33.397Z,10
2023-01-20T10:33:35.218Z,10.1
2023-01-20T10:34:37.131Z,10
2023-01-20T10:35:39.023Z,10
2023-01-20T10:36:41.123Z,10
2023-01-20T10:37:42.834Z,10
2023-01-20T10:38:44.942Z,10
2023-01-20T10:39:47.158Z,10
2023-01-20T10:40:48.478Z,10
2023-01-20T10:41:50.310Z,10
2023-01-20T10:42:52.371Z,10
2023-01-20T10:43:54.618Z,10
2023-01-20T10:44:55.992Z,10
2023-01-20T10:45:57.921Z,10.1
2023-01-20T10:46:59.790Z,10.1
2023-01-20T10:48:01.876Z,10.1
2023-01-20T10:49:03.548Z,10.1
2023-01-20T10:50:05.448Z,10.1
2023-01-20T10:51:07.298Z,10.1
2023-01-20T10:52:09.251Z,10.2
2023-01-20T10:53:13.388Z,10.2
2023-01-20T10:54:23.306Z,10.2
2023-01-20T10:55:25.201Z,10.2
2023-01-20T10:56:27.335Z,10.2
2023-01-20T10:57:28.958Z,10.2
2023-01-20T10:58:30.952Z,10.2
2023-01-20T10:59:32.790Z,10.2
2023-01-20T11:00:34.629Z,10.2
2023-01-20T11:01:36.624Z,10.2
2023-01-20T11:02:38.526Z,10.2
2023-01-20T11:03:40.401Z,10.2
2023-01-20T11:04:42.220Z,10.2
2023-01-20T11:05:44.139Z,10.2
2023-01-20T11:06:46.010Z,10.2
2023-01-20T11:07:47.952Z,10.2
2023-01-20T11:08:49.862Z,10.2
2023-01-20T11:09:51.752Z,10.2
2023-01-20T11:10:53.595Z,10.2
2023-01-20T11:11:55.460Z,10.2
2023-01-20T11:12:57.380Z,10.2
2023-01-20T11:13:59.312Z,10.2
2023-01-20T11:15:01.151Z,10.2
2023-01-20T11:16:03.125Z,10.2
2023-01-20T11:17:04.969Z,10.2
2023-01-20T11:18:06.832Z,10.2
2023-01-20T11:19:08.863Z,10.2
2023-01-20T11:20:10.638Z,10.2
2023-01-20T11:21:12.505Z,10.2
2023-01-20T11:22:14.428Z,10.2
2023-01-20T11:23:16.375Z,10.2
2023-01-20T11:24:18.213Z,10.2
2023-01-20T11:25:20.048Z,10.2
2023-01-20T11:26:21.979Z,10.2
2023-01-20T11:27:23.848Z,10.2
2023-01-20T11:28:25.727Z,10.2
2023-01-20T11:29:27.695Z,10.2
2023-01-20T11:30:30.276Z,10.2
2023-01-20T11:31:31.626Z,10.2
2023-01-20T11:32:33.496Z,10.2
2023-01-20T11:33:35.450Z,10.2
2023-01-20T11:34:37.430Z,10.2
2023-01-20T11:35:39.182Z,10.2
2023-01-20T11:36:41.062Z,10.2
2023-01-20T11:37:42.996Z,10.2
2023-01-20T11:38:44.918Z,10.2
2023-01-20T11:39:46.891Z,10.2
2023-01-20T11:40:48.693Z,10.2
2023-01-20T11:41:50.564Z,10.2
2023-01-20T11:42:52.548Z,10.2
2023-01-20T11:43:54.364Z,10.2
2023-01-20T11:44:56.324Z,10.2
2023-01-20T11:46:29.131Z,10.2
2023-01-20T11:47:31.483Z,10.2
2023-01-20T11:48:32.887Z,10.2
2023-01-20T11:49:34.761Z,10.2
2023-01-20T11:50:36.710Z,10.2
2023-01-20T11:51:38.887Z,10.2
2023-01-20T11:52:40.395Z,10.2
2023-01-20T11:53:42.423Z,10.2
2023-01-20T11:54:44.429Z,10.2
2023-01-20T11:55:46.282Z,10.2
2023-01-20T11:56:48.091Z,10.2
2023-01-20T11:57:50.082Z,10.2
2023-01-20T11:58:51.874Z,10.2
2023-01-20T11:59:53.733Z,10.2
2023-01-20T12:00:55.695Z,10.2
2023-01-20T12:01:57.571Z,10.2
2023-01-20T12:02:59.416Z,10.2
2023-01-20T12:04:01.305Z,10.2
2023-01-20T12:05:03.192Z,10.2
2023-01-20T12:06:05.152Z,10.2
2023-01-20T12:07:06.991Z,10.2
2023-01-20T12:08:08.834Z,10.2
2023-01-20T12:09:10.727Z,10.2
2023-01-20T12:10:12.672Z,10.2
2023-01-20T12:11:24.914Z,10.2
2023-01-20T12:12:26.723Z,10.2
2023-01-20T12:13:28.592Z,10.2
2023-01-20T12:14:30.507Z,10.2
2023-01-20T12:15:32.472Z,10.2
2023-01-20T12:16:34.448Z,10.2
2023-01-20T12:17:36.183Z,10.2
2023-01-20T12:18:38.066Z,10.2
2023-01-20T12:19:39.985Z,10.2
2023-01-20T12:20:53.882Z,10.2
2023-01-20T12:22:04.464Z,10.2
2023-01-20T12:23:06.280Z,10.2
2023-01-20T12:24:08.181Z,10.2
2023-01-20T12:25:10.074Z,10.2
2023-01-20T12:26:12.073Z,10.2
2023-01-20T12:27:13.990Z,10.2
2023-01-20T12:28:15.757Z,10.2
2023-01-20T12:29:17.637Z,10.2
2023-01-20T12:30:22.437Z,10.2
2023-01-20T12:31:31.775Z,10.2
2023-01-20T12:32:44.198Z,10.2
2023-01-20T12:33:45.839Z,10.2
2023-01-20T12:34:47.687Z,10.2
2023-01-20T12:35:49.571Z,10.2
2023-01-20T12:36:51.497Z,10.2
2023-01-20T12:37:53.430Z,10.2
2023-01-20T12:38:55.254Z,10.2
2023-01-20T12:39:57.235Z,10.2
2023-01-20T12:40:59.008Z,10.2
2023-01-20T12:42:02.797Z,10.2
2023-01-20T12:43:13.230Z,10.2
2023-01-20T12:44:15.025Z,10.2
2023-01-20T12:45:16.945Z,10.2
2023-01-20T12:46:18.841Z,10.2
2023-01-20T12:47:20.746Z,10.3
2023-01-20T12:48:22.664Z,10.3
2023-01-20T12:49:24.511Z,10.3
2023-01-20T12:50:26.395Z,10.3
2023-01-20T12:51:28.275Z,10.3
2023-01-20T12:52:30.188Z,10.3
2023-01-20T12:53:32.148Z,10.3
2023-01-20T12:54:47.123Z,10.3
2023-01-20T12:55:56.430Z,10.3
2023-01-20T12:56:58.291Z,10.3
2023-01-20T12:58:00.216Z,10.3
2023-01-20T12:59:02.147Z,10.3
2023-01-20T13:00:03.997Z,10.3
2023-01-20T13:01:06.019Z,10.3
2023-01-20T13:02:07.786Z,10.3
2023-01-20T13:03:09.680Z,10.3
2023-01-20T13:04:11.711Z,10.3
2023-01-20T13:05:15.437Z,10.3
2023-01-20T13:06:25.650Z,10.3
2023-01-20T13:07:27.526Z,10.3
2023-01-20T13:08:29.435Z,10.3
2023-01-20T13:09:31.363Z,10.3
2023-01-20T13:10:33.213Z,10.3
2023-01-20T13:11:35.111Z,10.3
2023-01-20T13:12:37.053Z,10.3
2023-01-20T13:13:51.630Z,10.3
2023-01-20T13:15:01.509Z,10.3
2023-01-20T13:16:03.318Z,10.3
2023-01-20T13:17:05.317Z,10.3
2023-01-20T13:18:07.112Z,10.3
2023-01-20T13:19:09.012Z,10.3
2023-01-20T13:20:10.949Z,10.3
2023-01-20T13:21:12.799Z,10.3
2023-01-20T13:22:14.730Z,10.3
2023-01-20T13:23:16.557Z,10.3
2023-01-20T13:24:18.450Z,10.3
2023-01-20T13:25:20.460Z,10.3
2023-01-20T13:26:22.336Z,10.3
2023-01-20T13:27:24.088Z,10.3
2023-01-20T13:28:25.986Z,10.3
2023-01-20T13:29:27.881Z,10.3
2023-01-20T13:30:29.855Z,10.3
2023-01-20T13:31:31.698Z,10.3
2023-01-20T13:32:33.492Z,10.3
2023-01-20T13:33:35.376Z,10.3
2023-01-20T13:34:37.549Z,10.3
2023-01-20T13:35:39.577Z,10.3
2023-01-20T13:36:41.317Z,10.3
2023-01-20T13:37:43.207Z,10.3
2023-01-20T13:38:45.065Z,10.3
2023-01-20T13:39:46.959Z,10.4
2023-01-20T13:40:48.889Z,10.4
2023-01-20T13:41:51.372Z,10.4
2023-01-20T13:42:52.666Z,10.4
2023-01-20T13:43:54.597Z,10.4
2023-01-20T13:44:56.460Z,10.4
2023-01-20T13:45:58.655Z,10.4
2023-01-20T13:47:00.292Z,10.4
2023-01-20T13:48:02.091Z,10.4
2023-01-20T13:49:03.967Z,10.4
2023-01-20T13:50:05.943Z,10.4
2023-01-20T13:51:08.875Z,10.4
2023-01-20T13:52:19.953Z,10.4
2023-01-20T13:53:21.850Z,10.4
2023-01-20T13:54:23.998Z,10.4
2023-01-20T13:55:25.593Z,10.4
2023-01-20T13:56:27.531Z,10.4
2023-01-20T13:57:29.463Z,10.4
2023-01-20T13:58:31.252Z,10.4
2023-01-20T13:59:33.173Z,10.4
2023-01-20T14:00:35.183Z,10.4
2023-01-20T14:01:36.994Z,10.4
2023-01-20T14:02:38.976Z,10.4
2023-01-20T14:03:40.705Z,10.4
2023-01-20T14:04:42.580Z,10.4
2023-01-20T14:05:44.468Z,10.4
2023-01-20T14:06:46.456Z,10.4